sensor_id;sensor_type;location;lat;lon;timestamp;P1;durP1;ratioP1;P2;durP2;ratioP2
12916;SDS011;6526;54.312;13.092;2023-04-01T00:00:54;2.87;;;2.17;;
12916;SDS011;6526;54.312;13.092;2023-04-01T00:03:22;1.17;;;1.10;;
12916;SDS011;6526;54.312;13.092;2023-04-01T00:05:49;8.70;;;1.80;;
12916;SDS011;6526;54.312;13.092;2023-04-01T00:08:15;3.30;;;2.03;;
12916;SDS011;6526;54.312;13.092;2023-04-01T00:10:42;2.43;;;2.23;;
12916;SDS011;6526;54.312;13.092;2023-04-01T00:13:08;3.77;;;2.43;;
12916;SDS011;6526;54.312;13.092;2023-04-01T00:15:34;5.13;;;1.90;;
12916;SDS011;6526;54.312;13.092;2023-04-01T00:18:00;1.73;;;1.13;;
12916;SDS011;6526;54.312;13.092;2023-04-01T00:20:27;1.27;;;1.17;;
12916;SDS011;6526;54.312;13.092;2023-04-01T00:22:53;5.07;;;3.10;;
12916;SDS011;6526;54.312;13.092;2023-04-01T00:25:20;2.87;;;2.10;;
12916;SDS011;6526;54.312;13.092;2023-04-01T00:27:46;1.73;;;1.33;;
12916;SDS011;6526;54.312;13.092;2023-04-01T00:30:12;4.30;;;3.17;;
12916;SDS011;6526;54.312;13.092;2023-04-01T00:32:39;1.70;;;1.60;;
12916;SDS011;6526;54.312;13.092;2023-04-01T00:35:05;1.57;;;1.23;;
12916;SDS011;6526;54.312;13.092;2023-04-01T00:37:34;5.43;;;3.40;;
12916;SDS011;6526;54.312;13.092;2023-04-01T00:40:01;2.80;;;2.47;;
12916;SDS011;6526;54.312;13.092;2023-04-01T00:42:29;4.07;;;2.90;;
12916;SDS011;6526;54.312;13.092;2023-04-01T00:44:55;6.33;;;3.53;;
12916;SDS011;6526;54.312;13.092;2023-04-01T00:47:22;4.73;;;2.77;;
12916;SDS011;6526;54.312;13.092;2023-04-01T00:49:51;4.37;;;3.43;;
12916;SDS011;6526;54.312;13.092;2023-04-01T00:52:19;2.93;;;1.97;;
12916;SDS011;6526;54.312;13.092;2023-04-01T00:54:49;3.33;;;2.00;;
12916;SDS011;6526;54.312;13.092;2023-04-01T00:57:27;4.67;;;2.83;;
12916;SDS011;6526;54.312;13.092;2023-04-01T00:59:59;1.67;;;1.13;;
12916;SDS011;6526;54.312;13.092;2023-04-01T01:02:25;5.63;;;2.57;;
12916;SDS011;6526;54.312;13.092;2023-04-01T01:04:51;1.00;;;1.00;;
12916;SDS011;6526;54.312;13.092;2023-04-01T01:07:28;2.57;;;2.27;;
12916;SDS011;6526;54.312;13.092;2023-04-01T01:10:11;2.13;;;1.93;;
12916;SDS011;6526;54.312;13.092;2023-04-01T01:15:30;6.20;;;2.57;;
12916;SDS011;6526;54.312;13.092;2023-04-01T01:32:07;2.23;;;2.03;;
12916;SDS011;6526;54.312;13.092;2023-04-01T01:37:16;4.97;;;2.57;;
12916;SDS011;6526;54.312;13.092;2023-04-01T01:39:44;19.00;;;5.93;;
12916;SDS011;6526;54.312;13.092;2023-04-01T01:42:18;8.20;;;5.47;;
12916;SDS011;6526;54.312;13.092;2023-04-01T01:44:45;4.17;;;2.17;;
12916;SDS011;6526;54.312;13.092;2023-04-01T01:47:14;4.00;;;3.37;;
12916;SDS011;6526;54.312;13.092;2023-04-01T01:49:41;3.53;;;2.93;;
12916;SDS011;6526;54.312;13.092;2023-04-01T01:52:09;7.40;;;3.70;;
12916;SDS011;6526;54.312;13.092;2023-04-01T01:54:36;7.53;;;5.20;;
12916;SDS011;6526;54.312;13.092;2023-04-01T01:57:12;6.70;;;3.07;;
12916;SDS011;6526;54.312;13.092;2023-04-01T01:59:39;5.20;;;2.50;;
12916;SDS011;6526;54.312;13.092;2023-04-01T02:02:07;3.00;;;1.33;;
12916;SDS011;6526;54.312;13.092;2023-04-01T02:04:36;11.17;;;6.03;;
12916;SDS011;6526;54.312;13.092;2023-04-01T02:07:07;11.10;;;4.50;;
12916;SDS011;6526;54.312;13.092;2023-04-01T02:09:38;1.50;;;1.40;;
12916;SDS011;6526;54.312;13.092;2023-04-01T02:12:08;5.57;;;3.67;;
12916;SDS011;6526;54.312;13.092;2023-04-01T02:17:23;6.87;;;3.70;;
12916;SDS011;6526;54.312;13.092;2023-04-01T02:19:52;3.20;;;2.43;;
12916;SDS011;6526;54.312;13.092;2023-04-01T02:22:23;2.27;;;2.07;;
12916;SDS011;6526;54.312;13.092;2023-04-01T02:24:53;8.97;;;4.50;;
12916;SDS011;6526;54.312;13.092;2023-04-01T02:27:25;9.13;;;6.60;;
12916;SDS011;6526;54.312;13.092;2023-04-01T02:29:52;5.93;;;3.50;;
12916;SDS011;6526;54.312;13.092;2023-04-01T02:32:18;8.47;;;3.73;;
12916;SDS011;6526;54.312;13.092;2023-04-01T02:34:45;7.83;;;4.20;;
12916;SDS011;6526;54.312;13.092;2023-04-01T02:37:12;2.57;;;2.33;;
12916;SDS011;6526;54.312;13.092;2023-04-01T02:39:39;3.73;;;2.47;;
12916;SDS011;6526;54.312;13.092;2023-04-01T02:42:07;5.93;;;4.57;;
12916;SDS011;6526;54.312;13.092;2023-04-01T02:44:33;4.20;;;3.73;;
12916;SDS011;6526;54.312;13.092;2023-04-01T02:47:00;7.17;;;3.83;;
12916;SDS011;6526;54.312;13.092;2023-04-01T02:49:26;2.50;;;2.13;;
12916;SDS011;6526;54.312;13.092;2023-04-01T02:51:52;7.27;;;3.87;;
12916;SDS011;6526;54.312;13.092;2023-04-01T02:54:18;4.90;;;2.20;;
12916;SDS011;6526;54.312;13.092;2023-04-01T02:56:44;9.03;;;3.77;;
12916;SDS011;6526;54.312;13.092;2023-04-01T02:59:11;5.30;;;2.97;;
12916;SDS011;6526;54.312;13.092;2023-04-01T03:01:37;7.57;;;4.40;;
12916;SDS011;6526;54.312;13.092;2023-04-01T03:04:03;6.33;;;3.83;;
12916;SDS011;6526;54.312;13.092;2023-04-01T03:06:29;5.53;;;4.23;;
12916;SDS011;6526;54.312;13.092;2023-04-01T03:08:55;6.47;;;4.83;;
12916;SDS011;6526;54.312;13.092;2023-04-01T03:11:22;7.97;;;3.50;;
12916;SDS011;6526;54.312;13.092;2023-04-01T03:13:48;4.87;;;2.57;;
12916;SDS011;6526;54.312;13.092;2023-04-01T03:16:14;4.90;;;2.90;;
12916;SDS011;6526;54.312;13.092;2023-04-01T03:18:40;3.50;;;3.20;;
12916;SDS011;6526;54.312;13.092;2023-04-01T03:23:45;3.37;;;2.90;;
12916;SDS011;6526;54.312;13.092;2023-04-01T03:26:11;5.97;;;3.27;;
12916;SDS011;6526;54.312;13.092;2023-04-01T03:28:38;1.33;;;1.03;;
12916;SDS011;6526;54.312;13.092;2023-04-01T03:31:04;4.83;;;2.93;;
12916;SDS011;6526;54.312;13.092;2023-04-01T03:33:31;7.67;;;2.67;;
12916;SDS011;6526;54.312;13.092;2023-04-01T03:35:57;4.53;;;2.10;;
12916;SDS011;6526;54.312;13.092;2023-04-01T03:38:23;8.43;;;3.90;;
12916;SDS011;6526;54.312;13.092;2023-04-01T03:40:49;4.87;;;2.67;;
12916;SDS011;6526;54.312;13.092;2023-04-01T03:43:15;6.73;;;4.27;;
12916;SDS011;6526;54.312;13.092;2023-04-01T03:45:45;5.50;;;3.90;;
12916;SDS011;6526;54.312;13.092;2023-04-01T03:48:12;8.80;;;3.80;;
12916;SDS011;6526;54.312;13.092;2023-04-01T03:50:39;3.70;;;1.07;;
12916;SDS011;6526;54.312;13.092;2023-04-01T03:53:05;7.83;;;4.97;;
12916;SDS011;6526;54.312;13.092;2023-04-01T03:55:32;6.60;;;3.47;;
12916;SDS011;6526;54.312;13.092;2023-04-01T03:57:58;1.50;;;1.40;;
12916;SDS011;6526;54.312;13.092;2023-04-01T04:00:24;10.43;;;4.23;;
12916;SDS011;6526;54.312;13.092;2023-04-01T04:02:50;9.83;;;3.43;;
12916;SDS011;6526;54.312;13.092;2023-04-01T04:05:16;8.60;;;2.90;;
12916;SDS011;6526;54.312;13.092;2023-04-01T04:07:43;5.80;;;3.60;;
12916;SDS011;6526;54.312;13.092;2023-04-01T04:10:09;4.37;;;2.90;;
12916;SDS011;6526;54.312;13.092;2023-04-01T04:12:35;5.33;;;3.03;;
12916;SDS011;6526;54.312;13.092;2023-04-01T04:15:01;0.53;;;0.53;;
12916;SDS011;6526;54.312;13.092;2023-04-01T04:17:27;7.10;;;4.63;;
12916;SDS011;6526;54.312;13.092;2023-04-01T04:19:53;6.60;;;3.93;;
12916;SDS011;6526;54.312;13.092;2023-04-01T04:22:19;6.77;;;2.63;;
12916;SDS011;6526;54.312;13.092;2023-04-01T04:24:45;6.47;;;2.93;;
12916;SDS011;6526;54.312;13.092;2023-04-01T04:27:11;2.17;;;1.33;;
12916;SDS011;6526;54.312;13.092;2023-04-01T04:29:38;3.73;;;2.40;;
12916;SDS011;6526;54.312;13.092;2023-04-01T04:32:04;4.23;;;2.50;;
12916;SDS011;6526;54.312;13.092;2023-04-01T04:34:30;8.27;;;3.27;;
12916;SDS011;6526;54.312;13.092;2023-04-01T04:36:56;4.83;;;2.50;;
12916;SDS011;6526;54.312;13.092;2023-04-01T04:39:22;4.47;;;3.27;;
12916;SDS011;6526;54.312;13.092;2023-04-01T04:41:48;2.70;;;2.27;;
12916;SDS011;6526;54.312;13.092;2023-04-01T04:44:14;2.87;;;1.93;;
12916;SDS011;6526;54.312;13.092;2023-04-01T04:46:40;2.60;;;1.77;;
12916;SDS011;6526;54.312;13.092;2023-04-01T04:49:06;3.47;;;2.50;;
12916;SDS011;6526;54.312;13.092;2023-04-01T04:51:32;5.73;;;3.47;;
12916;SDS011;6526;54.312;13.092;2023-04-01T04:54:00;3.50;;;2.53;;
12916;SDS011;6526;54.312;13.092;2023-04-01T04:56:27;4.53;;;3.30;;
12916;SDS011;6526;54.312;13.092;2023-04-01T04:58:53;3.90;;;2.60;;
12916;SDS011;6526;54.312;13.092;2023-04-01T05:01:20;4.77;;;2.83;;
12916;SDS011;6526;54.312;13.092;2023-04-01T05:03:46;6.80;;;2.63;;
12916;SDS011;6526;54.312;13.092;2023-04-01T05:06:13;7.40;;;2.37;;
12916;SDS011;6526;54.312;13.092;2023-04-01T05:08:40;7.97;;;2.80;;
12916;SDS011;6526;54.312;13.092;2023-04-01T05:11:09;3.70;;;3.03;;
12916;SDS011;6526;54.312;13.092;2023-04-01T05:13:42;5.33;;;3.13;;
12916;SDS011;6526;54.312;13.092;2023-04-01T05:16:10;5.37;;;2.47;;
12916;SDS011;6526;54.312;13.092;2023-04-01T05:18:38;7.83;;;4.37;;
12916;SDS011;6526;54.312;13.092;2023-04-01T05:21:06;6.00;;;3.00;;
12916;SDS011;6526;54.312;13.092;2023-04-01T05:23:34;5.10;;;3.43;;
12916;SDS011;6526;54.312;13.092;2023-04-01T05:26:04;5.00;;;3.63;;
12916;SDS011;6526;54.312;13.092;2023-04-01T05:28:31;7.30;;;4.17;;
12916;SDS011;6526;54.312;13.092;2023-04-01T05:31:00;1.53;;;1.30;;
12916;SDS011;6526;54.312;13.092;2023-04-01T05:33:28;5.97;;;3.30;;
12916;SDS011;6526;54.312;13.092;2023-04-01T05:35:54;5.30;;;4.00;;
12916;SDS011;6526;54.312;13.092;2023-04-01T05:38:21;2.83;;;2.10;;
12916;SDS011;6526;54.312;13.092;2023-04-01T05:40:47;4.67;;;1.23;;
12916;SDS011;6526;54.312;13.092;2023-04-01T05:43:13;9.83;;;5.33;;
12916;SDS011;6526;54.312;13.092;2023-04-01T05:45:39;7.53;;;4.87;;
12916;SDS011;6526;54.312;13.092;2023-04-01T05:48:05;6.77;;;3.57;;
12916;SDS011;6526;54.312;13.092;2023-04-01T05:50:31;3.87;;;2.57;;
12916;SDS011;6526;54.312;13.092;2023-04-01T05:52:58;4.93;;;3.83;;
12916;SDS011;6526;54.312;13.092;2023-04-01T05:55:24;6.50;;;3.83;;
12916;SDS011;6526;54.312;13.092;2023-04-01T05:57:50;5.70;;;4.33;;
12916;SDS011;6526;54.312;13.092;2023-04-01T06:00:16;7.67;;;3.53;;
12916;SDS011;6526;54.312;13.092;2023-04-01T06:02:44;9.43;;;4.87;;
12916;SDS011;6526;54.312;13.092;2023-04-01T06:07:39;9.40;;;5.30;;
12916;SDS011;6526;54.312;13.092;2023-04-01T06:10:10;6.97;;;4.77;;
12916;SDS011;6526;54.312;13.092;2023-04-01T06:12:41;5.90;;;4.03;;
12916;SDS011;6526;54.312;13.092;2023-04-01T06:15:18;8.83;;;6.33;;
12916;SDS011;6526;54.312;13.092;2023-04-01T06:20:27;3.67;;;2.60;;
12916;SDS011;6526;54.312;13.092;2023-04-01T06:31:04;7.07;;;5.20;;
12916;SDS011;6526;54.312;13.092;2023-04-01T06:39:15;1.83;;;1.67;;
12916;SDS011;6526;54.312;13.092;2023-04-01T06:42:02;12.47;;;6.30;;
12916;SDS011;6526;54.312;13.092;2023-04-01T06:47:35;10.30;;;3.30;;
12916;SDS011;6526;54.312;13.092;2023-04-01T06:58:03;7.47;;;3.67;;
12916;SDS011;6526;54.312;13.092;2023-04-01T07:00:37;6.40;;;3.67;;
12916;SDS011;6526;54.312;13.092;2023-04-01T07:03:26;1.57;;;0.77;;
12916;SDS011;6526;54.312;13.092;2023-04-01T07:06:05;5.83;;;4.63;;
12916;SDS011;6526;54.312;13.092;2023-04-01T07:08:35;5.30;;;3.27;;
12916;SDS011;6526;54.312;13.092;2023-04-01T07:11:06;8.70;;;5.00;;
12916;SDS011;6526;54.312;13.092;2023-04-01T07:13:41;8.40;;;3.93;;
12916;SDS011;6526;54.312;13.092;2023-04-01T07:16:41;12.27;;;8.83;;
12916;SDS011;6526;54.312;13.092;2023-04-01T07:19:27;5.77;;;3.43;;
12916;SDS011;6526;54.312;13.092;2023-04-01T07:27:47;6.93;;;3.70;;
12916;SDS011;6526;54.312;13.092;2023-04-01T07:32:44;5.47;;;3.50;;
12916;SDS011;6526;54.312;13.092;2023-04-01T07:35:38;7.37;;;3.70;;
12916;SDS011;6526;54.312;13.092;2023-04-01T07:43:53;10.87;;;7.33;;
12916;SDS011;6526;54.312;13.092;2023-04-01T07:46:34;5.60;;;2.97;;
12916;SDS011;6526;54.312;13.092;2023-04-01T07:49:28;9.47;;;4.90;;
12916;SDS011;6526;54.312;13.092;2023-04-01T07:57:27;3.67;;;2.70;;
12916;SDS011;6526;54.312;13.092;2023-04-01T08:00:23;5.20;;;2.57;;
12916;SDS011;6526;54.312;13.092;2023-04-01T08:05:40;5.57;;;2.67;;
12916;SDS011;6526;54.312;13.092;2023-04-01T08:13:18;7.00;;;5.03;;
12916;SDS011;6526;54.312;13.092;2023-04-01T08:21:42;5.30;;;2.63;;
12916;SDS011;6526;54.312;13.092;2023-04-01T08:27:06;4.87;;;1.70;;
12916;SDS011;6526;54.312;13.092;2023-04-01T08:30:06;2.20;;;2.00;;
12916;SDS011;6526;54.312;13.092;2023-04-01T08:32:53;7.10;;;4.00;;
12916;SDS011;6526;54.312;13.092;2023-04-01T08:37:56;5.73;;;3.10;;
12916;SDS011;6526;54.312;13.092;2023-04-01T08:40:41;2.87;;;1.50;;
12916;SDS011;6526;54.312;13.092;2023-04-01T08:48:55;6.07;;;3.53;;
12916;SDS011;6526;54.312;13.092;2023-04-01T09:08:19;7.00;;;3.07;;
12916;SDS011;6526;54.312;13.092;2023-04-01T09:10:57;1.10;;;0.83;;
12916;SDS011;6526;54.312;13.092;2023-04-01T09:16:11;2.10;;;1.90;;
12916;SDS011;6526;54.312;13.092;2023-04-01T09:27:29;2.93;;;1.73;;
12916;SDS011;6526;54.312;13.092;2023-04-01T09:39:42;6.80;;;3.17;;
12916;SDS011;6526;54.312;13.092;2023-04-01T09:45:01;9.20;;;5.17;;
12916;SDS011;6526;54.312;13.092;2023-04-01T09:47:43;7.80;;;3.33;;
12916;SDS011;6526;54.312;13.092;2023-04-01T09:50:17;2.17;;;1.97;;
12916;SDS011;6526;54.312;13.092;2023-04-01T09:52:59;8.23;;;4.23;;
12916;SDS011;6526;54.312;13.092;2023-04-01T09:58:33;4.30;;;2.20;;
12916;SDS011;6526;54.312;13.092;2023-04-01T10:04:23;14.53;;;3.33;;
12916;SDS011;6526;54.312;13.092;2023-04-01T10:12:56;3.80;;;2.53;;
12916;SDS011;6526;54.312;13.092;2023-04-01T10:16:07;3.23;;;2.60;;
12916;SDS011;6526;54.312;13.092;2023-04-01T10:19:11;4.67;;;2.33;;
12916;SDS011;6526;54.312;13.092;2023-04-01T10:22:36;6.53;;;3.77;;
12916;SDS011;6526;54.312;13.092;2023-04-01T10:30:27;2.57;;;2.13;;
12916;SDS011;6526;54.312;13.092;2023-04-01T10:41:52;4.27;;;2.63;;
12916;SDS011;6526;54.312;13.092;2023-04-01T10:44:30;2.80;;;2.03;;
12916;SDS011;6526;54.312;13.092;2023-04-01T10:49:57;9.33;;;3.07;;
12916;SDS011;6526;54.312;13.092;2023-04-01T11:06:30;4.30;;;2.37;;
12916;SDS011;6526;54.312;13.092;2023-04-01T11:20:45;8.27;;;4.57;;
12916;SDS011;6526;54.312;13.092;2023-04-01T11:23:50;5.43;;;2.33;;
12916;SDS011;6526;54.312;13.092;2023-04-01T11:29:26;7.60;;;2.70;;
12916;SDS011;6526;54.312;13.092;2023-04-01T11:33:07;5.43;;;2.63;;
12916;SDS011;6526;54.312;13.092;2023-04-01T11:35:19;4.83;;;1.87;;
12916;SDS011;6526;54.312;13.092;2023-04-01T11:38:12;6.80;;;2.93;;
12916;SDS011;6526;54.312;13.092;2023-04-01T11:50:08;4.10;;;2.07;;
12916;SDS011;6526;54.312;13.092;2023-04-01T11:52:46;1.23;;;1.10;;
12916;SDS011;6526;54.312;13.092;2023-04-01T11:58:21;2.40;;;1.73;;
12916;SDS011;6526;54.312;13.092;2023-04-01T12:12:42;1.77;;;1.40;;
12916;SDS011;6526;54.312;13.092;2023-04-01T12:15:30;2.67;;;2.37;;
12916;SDS011;6526;54.312;13.092;2023-04-01T12:18:21;4.80;;;2.80;;
12916;SDS011;6526;54.312;13.092;2023-04-01T12:26:52;2.83;;;1.50;;
12916;SDS011;6526;54.312;13.092;2023-04-01T12:29:42;0.60;;;0.60;;
12916;SDS011;6526;54.312;13.092;2023-04-01T12:32:23;1.30;;;1.07;;
12916;SDS011;6526;54.312;13.092;2023-04-01T12:38:00;2.77;;;1.50;;
12916;SDS011;6526;54.312;13.092;2023-04-01T12:46:44;3.43;;;1.40;;
12916;SDS011;6526;54.312;13.092;2023-04-01T12:52:35;2.07;;;1.80;;
12916;SDS011;6526;54.312;13.092;2023-04-01T12:55:43;1.33;;;1.10;;
12916;SDS011;6526;54.312;13.092;2023-04-01T12:58:29;2.57;;;1.30;;
12916;SDS011;6526;54.312;13.092;2023-04-01T13:01:34;1.87;;;1.53;;
12916;SDS011;6526;54.312;13.092;2023-04-01T13:04:41;1.30;;;1.13;;
12916;SDS011;6526;54.312;13.092;2023-04-01T13:07:38;3.03;;;1.07;;
12916;SDS011;6526;54.312;13.092;2023-04-01T13:10:27;0.90;;;0.90;;
12916;SDS011;6526;54.312;13.092;2023-04-01T13:21:42;3.27;;;1.80;;
12916;SDS011;6526;54.312;13.092;2023-04-01T13:24:23;2.10;;;1.03;;
12916;SDS011;6526;54.312;13.092;2023-04-01T13:29:57;4.00;;;1.80;;
12916;SDS011;6526;54.312;13.092;2023-04-01T13:35:41;9.03;;;2.27;;
12916;SDS011;6526;54.312;13.092;2023-04-01T13:38:37;2.40;;;1.57;;
12916;SDS011;6526;54.312;13.092;2023-04-01T13:44:12;4.53;;;0.87;;
12916;SDS011;6526;54.312;13.092;2023-04-01T13:47:05;3.10;;;1.50;;
12916;SDS011;6526;54.312;13.092;2023-04-01T14:00:32;1.97;;;1.40;;
12916;SDS011;6526;54.312;13.092;2023-04-01T14:06:14;1.97;;;1.10;;
12916;SDS011;6526;54.312;13.092;2023-04-01T14:08:55;1.47;;;1.10;;
12916;SDS011;6526;54.312;13.092;2023-04-01T14:14:21;4.80;;;1.80;;
12916;SDS011;6526;54.312;13.092;2023-04-01T14:17:01;1.60;;;1.50;;
12916;SDS011;6526;54.312;13.092;2023-04-01T14:19:33;1.00;;;0.90;;
12916;SDS011;6526;54.312;13.092;2023-04-01T14:22:32;2.07;;;0.97;;
12916;SDS011;6526;54.312;13.092;2023-04-01T14:25:36;1.13;;;1.07;;
12916;SDS011;6526;54.312;13.092;2023-04-01T14:33:43;0.77;;;0.77;;
12916;SDS011;6526;54.312;13.092;2023-04-01T14:39:22;2.40;;;2.20;;
12916;SDS011;6526;54.312;13.092;2023-04-01T14:42:18;1.60;;;1.50;;
12916;SDS011;6526;54.312;13.092;2023-04-01T14:44:56;3.30;;;1.53;;
12916;SDS011;6526;54.312;13.092;2023-04-01T14:47:51;1.20;;;1.10;;
12916;SDS011;6526;54.312;13.092;2023-04-01T14:50:42;2.50;;;1.13;;
12916;SDS011;6526;54.312;13.092;2023-04-01T14:55:49;5.70;;;1.33;;
12916;SDS011;6526;54.312;13.092;2023-04-01T14:58:24;2.00;;;1.27;;
12916;SDS011;6526;54.312;13.092;2023-04-01T15:03:39;2.13;;;0.90;;
12916;SDS011;6526;54.312;13.092;2023-04-01T15:06:45;5.53;;;2.30;;
12916;SDS011;6526;54.312;13.092;2023-04-01T15:12:21;1.63;;;1.50;;
12916;SDS011;6526;54.312;13.092;2023-04-01T15:18:20;1.30;;;1.10;;
12916;SDS011;6526;54.312;13.092;2023-04-01T15:23:34;1.93;;;1.20;;
12916;SDS011;6526;54.312;13.092;2023-04-01T15:31:59;3.80;;;1.10;;
12916;SDS011;6526;54.312;13.092;2023-04-01T15:37:54;3.13;;;1.33;;
12916;SDS011;6526;54.312;13.092;2023-04-01T15:40:40;2.63;;;1.13;;
12916;SDS011;6526;54.312;13.092;2023-04-01T15:43:24;2.77;;;1.73;;
12916;SDS011;6526;54.312;13.092;2023-04-01T16:03:18;3.47;;;1.07;;
12916;SDS011;6526;54.312;13.092;2023-04-01T16:11:29;1.00;;;0.60;;
12916;SDS011;6526;54.312;13.092;2023-04-01T16:16:58;2.23;;;1.17;;
12916;SDS011;6526;54.312;13.092;2023-04-01T16:19:57;3.83;;;1.53;;
12916;SDS011;6526;54.312;13.092;2023-04-01T16:22:26;2.70;;;1.07;;
12916;SDS011;6526;54.312;13.092;2023-04-01T16:26:01;2.80;;;1.47;;
12916;SDS011;6526;54.312;13.092;2023-04-01T16:28:21;2.97;;;1.00;;
12916;SDS011;6526;54.312;13.092;2023-04-01T16:33:43;1.80;;;0.77;;
12916;SDS011;6526;54.312;13.092;2023-04-01T16:36:48;10.73;;;1.57;;
12916;SDS011;6526;54.312;13.092;2023-04-01T16:39:30;0.60;;;0.60;;
12916;SDS011;6526;54.312;13.092;2023-04-01T16:44:59;1.10;;;0.97;;
12916;SDS011;6526;54.312;13.092;2023-04-01T16:47:35;1.50;;;0.83;;
12916;SDS011;6526;54.312;13.092;2023-04-01T16:50:39;3.70;;;1.40;;
12916;SDS011;6526;54.312;13.092;2023-04-01T16:56:22;1.93;;;1.03;;
12916;SDS011;6526;54.312;13.092;2023-04-01T17:01:48;1.80;;;0.70;;
12916;SDS011;6526;54.312;13.092;2023-04-01T17:04:29;0.20;;;0.20;;
12916;SDS011;6526;54.312;13.092;2023-04-01T17:09:42;0.33;;;0.30;;
12916;SDS011;6526;54.312;13.092;2023-04-01T17:27:06;4.33;;;0.93;;
12916;SDS011;6526;54.312;13.092;2023-04-01T17:40:37;0.77;;;0.50;;
12916;SDS011;6526;54.312;13.092;2023-04-01T17:43:22;1.33;;;0.90;;
12916;SDS011;6526;54.312;13.092;2023-04-01T17:49:18;0.50;;;0.30;;
12916;SDS011;6526;54.312;13.092;2023-04-01T17:51:50;0.63;;;0.33;;
12916;SDS011;6526;54.312;13.092;2023-04-01T17:54:43;0.87;;;0.43;;
12916;SDS011;6526;54.312;13.092;2023-04-01T17:59:59;2.00;;;0.40;;
12916;SDS011;6526;54.312;13.092;2023-04-01T18:10:30;1.17;;;0.40;;
12916;SDS011;6526;54.312;13.092;2023-04-01T18:13:44;1.27;;;0.87;;
12916;SDS011;6526;54.312;13.092;2023-04-01T18:16:30;0.47;;;0.47;;
12916;SDS011;6526;54.312;13.092;2023-04-01T18:27:18;2.17;;;0.90;;
12916;SDS011;6526;54.312;13.092;2023-04-01T18:29:55;2.83;;;1.13;;
12916;SDS011;6526;54.312;13.092;2023-04-01T18:41:07;0.67;;;0.30;;
12916;SDS011;6526;54.312;13.092;2023-04-01T18:43:42;0.50;;;0.30;;
12916;SDS011;6526;54.312;13.092;2023-04-01T18:49:45;1.73;;;0.53;;
12916;SDS011;6526;54.312;13.092;2023-04-01T18:52:36;2.73;;;0.60;;
12916;SDS011;6526;54.312;13.092;2023-04-01T18:55:22;6.73;;;3.90;;
12916;SDS011;6526;54.312;13.092;2023-04-01T19:01:16;0.73;;;0.73;;
12916;SDS011;6526;54.312;13.092;2023-04-01T19:04:12;5.87;;;0.60;;
12916;SDS011;6526;54.312;13.092;2023-04-01T19:07:32;1.23;;;0.60;;
12916;SDS011;6526;54.312;13.092;2023-04-01T19:24:17;0.40;;;0.40;;
12916;SDS011;6526;54.312;13.092;2023-04-01T19:32:25;0.40;;;0.27;;
12916;SDS011;6526;54.312;13.092;2023-04-01T19:35:42;0.97;;;0.87;;
12916;SDS011;6526;54.312;13.092;2023-04-01T19:41:38;1.73;;;0.70;;
12916;SDS011;6526;54.312;13.092;2023-04-01T19:44:17;1.47;;;0.90;;
12916;SDS011;6526;54.312;13.092;2023-04-01T19:47:00;0.13;;;0.13;;
12916;SDS011;6526;54.312;13.092;2023-04-01T19:49:51;0.20;;;0.20;;
12916;SDS011;6526;54.312;13.092;2023-04-01T19:52:26;2.90;;;0.90;;
12916;SDS011;6526;54.312;13.092;2023-04-01T19:57:46;0.50;;;0.40;;
12916;SDS011;6526;54.312;13.092;2023-04-01T20:06:12;1.43;;;0.90;;
12916;SDS011;6526;54.312;13.092;2023-04-01T20:11:54;7.20;;;1.10;;
12916;SDS011;6526;54.312;13.092;2023-04-01T20:19:42;0.20;;;0.20;;
12916;SDS011;6526;54.312;13.092;2023-04-01T20:25:16;0.00;;;0.00;;
12916;SDS011;6526;54.312;13.092;2023-04-01T20:27:58;0.83;;;0.33;;
12916;SDS011;6526;54.312;13.092;2023-04-01T20:30:38;1.43;;;0.60;;
12916;SDS011;6526;54.312;13.092;2023-04-01T20:33:18;0.10;;;0.10;;
12916;SDS011;6526;54.312;13.092;2023-04-01T20:46:48;0.00;;;0.00;;
12916;SDS011;6526;54.312;13.092;2023-04-01T20:49:40;0.37;;;0.33;;
12916;SDS011;6526;54.312;13.092;2023-04-01T20:54:53;0.73;;;0.47;;
12916;SDS011;6526;54.312;13.092;2023-04-01T20:57:48;5.77;;;1.13;;
12916;SDS011;6526;54.312;13.092;2023-04-01T21:09:12;6.13;;;1.00;;
12916;SDS011;6526;54.312;13.092;2023-04-01T21:14:49;0.83;;;0.30;;
12916;SDS011;6526;54.312;13.092;2023-04-01T21:25:26;0.80;;;0.27;;
12916;SDS011;6526;54.312;13.092;2023-04-01T21:28:09;1.43;;;0.70;;
12916;SDS011;6526;54.312;13.092;2023-04-01T21:37:07;0.53;;;0.53;;
12916;SDS011;6526;54.312;13.092;2023-04-01T21:48:43;0.10;;;0.10;;
12916;SDS011;6526;54.312;13.092;2023-04-01T21:54:27;1.43;;;0.50;;
12916;SDS011;6526;54.312;13.092;2023-04-01T21:57:10;0.67;;;0.13;;
12916;SDS011;6526;54.312;13.092;2023-04-01T22:07:58;0.00;;;0.00;;
12916;SDS011;6526;54.312;13.092;2023-04-01T22:10:44;1.23;;;0.80;;
12916;SDS011;6526;54.312;13.092;2023-04-01T22:13:26;0.87;;;0.10;;
12916;SDS011;6526;54.312;13.092;2023-04-01T22:18:43;1.23;;;0.40;;
12916;SDS011;6526;54.312;13.092;2023-04-01T22:21:18;0.97;;;0.40;;
12916;SDS011;6526;54.312;13.092;2023-04-01T22:24:09;0.40;;;0.40;;
12916;SDS011;6526;54.312;13.092;2023-04-01T22:29:57;5.53;;;0.30;;
12916;SDS011;6526;54.312;13.092;2023-04-01T22:32:47;0.87;;;0.40;;
12916;SDS011;6526;54.312;13.092;2023-04-01T22:41:13;1.50;;;0.53;;
12916;SDS011;6526;54.312;13.092;2023-04-01T22:43:55;0.20;;;0.20;;
12916;SDS011;6526;54.312;13.092;2023-04-01T22:49:08;0.50;;;0.50;;
12916;SDS011;6526;54.312;13.092;2023-04-01T22:51:43;2.83;;;0.50;;
12916;SDS011;6526;54.312;13.092;2023-04-01T22:54:31;1.77;;;0.30;;
12916;SDS011;6526;54.312;13.092;2023-04-01T23:02:45;0.23;;;0.23;;
12916;SDS011;6526;54.312;13.092;2023-04-01T23:05:33;3.00;;;0.60;;
12916;SDS011;6526;54.312;13.092;2023-04-01T23:08:16;0.73;;;0.17;;
12916;SDS011;6526;54.312;13.092;2023-04-01T23:11:18;0.60;;;0.30;;
12916;SDS011;6526;54.312;13.092;2023-04-01T23:16:54;0.00;;;0.00;;
12916;SDS011;6526;54.312;13.092;2023-04-01T23:19:49;0.37;;;0.30;;
12916;SDS011;6526;54.312;13.092;2023-04-01T23:28:15;0.37;;;0.20;;
12916;SDS011;6526;54.312;13.092;2023-04-01T23:31:02;4.63;;;0.50;;
12916;SDS011;6526;54.312;13.092;2023-04-01T23:33:43;2.50;;;0.30;;
12916;SDS011;6526;54.312;13.092;2023-04-01T23:36:10;0.27;;;0.20;;
12916;SDS011;6526;54.312;13.092;2023-04-01T23:38:39;10.90;;;0.30;;
12916;SDS011;6526;54.312;13.092;2023-04-01T23:41:07;1.07;;;0.33;;
12916;SDS011;6526;54.312;13.092;2023-04-01T23:43:43;1.80;;;0.30;;
12916;SDS011;6526;54.312;13.092;2023-04-01T23:46:14;1.07;;;0.40;;
12916;SDS011;6526;54.312;13.092;2023-04-01T23:48:41;1.20;;;0.10;;
12916;SDS011;6526;54.312;13.092;2023-04-01T23:53:45;0.17;;;0.17;;
12916;SDS011;6526;54.312;13.092;2023-04-01T23:56:12;0.20;;;0.20;;
12916;SDS011;6526;54.312;13.092;2023-04-01T23:58:44;0.53;;;0.53;;
